sensor_id;sensor_type;location;lat;lon;timestamp;P1;durP1;ratioP1;P2;durP2;ratioP2
4132;SDS011;2080;51.038;7.008;2023-05-07T00:00:39;1452.60;;;999.90;;
4132;SDS011;2080;51.038;7.008;2023-05-07T00:03:05;1373.53;;;999.90;;
4132;SDS011;2080;51.038;7.008;2023-05-07T00:05:33;1416.20;;;999.90;;
4132;SDS011;2080;51.038;7.008;2023-05-07T00:07:59;1386.22;;;999.90;;
4132;SDS011;2080;51.038;7.008;2023-05-07T00:10:27;1394.00;;;999.90;;
4132;SDS011;2080;51.038;7.008;2023-05-07T00:12:54;1365.65;;;999.90;;
4132;SDS011;2080;51.038;7.008;2023-05-07T00:15:22;1201.57;;;999.90;;
4132;SDS011;2080;51.038;7.008;2023-05-07T00:17:47;1243.50;;;999.90;;
4132;SDS011;2080;51.038;7.008;2023-05-07T00:20:13;1279.73;;;999.90;;
4132;SDS011;2080;51.038;7.008;2023-05-07T00:22:38;1292.53;;;999.90;;
4132;SDS011;2080;51.038;7.008;2023-05-07T00:25:08;1348.85;;;999.90;;
4132;SDS011;2080;51.038;7.008;2023-05-07T00:27:35;1347.28;;;999.90;;
4132;SDS011;2080;51.038;7.008;2023-05-07T00:30:00;1353.13;;;999.90;;
4132;SDS011;2080;51.038;7.008;2023-05-07T00:32:25;1286.33;;;999.90;;
4132;SDS011;2080;51.038;7.008;2023-05-07T00:34:53;1294.68;;;999.90;;
4132;SDS011;2080;51.038;7.008;2023-05-07T00:37:21;1282.32;;;999.90;;
4132;SDS011;2080;51.038;7.008;2023-05-07T00:39:46;1215.80;;;999.90;;
4132;SDS011;2080;51.038;7.008;2023-05-07T00:42:12;1140.23;;;999.90;;
4132;SDS011;2080;51.038;7.008;2023-05-07T00:44:37;1205.83;;;999.90;;
4132;SDS011;2080;51.038;7.008;2023-05-07T00:47:05;1190.57;;;999.90;;
4132;SDS011;2080;51.038;7.008;2023-05-07T00:49:42;1250.35;;;999.90;;
4132;SDS011;2080;51.038;7.008;2023-05-07T00:52:13;1275.03;;;999.90;;
4132;SDS011;2080;51.038;7.008;2023-05-07T00:54:40;1162.72;;;999.90;;
4132;SDS011;2080;51.038;7.008;2023-05-07T00:57:09;1313.93;;;999.90;;
4132;SDS011;2080;51.038;7.008;2023-05-07T00:59:36;1288.60;;;999.90;;
4132;SDS011;2080;51.038;7.008;2023-05-07T01:02:04;1341.60;;;999.90;;
4132;SDS011;2080;51.038;7.008;2023-05-07T01:04:30;1352.73;;;999.90;;
4132;SDS011;2080;51.038;7.008;2023-05-07T01:06:57;1339.40;;;999.90;;
4132;SDS011;2080;51.038;7.008;2023-05-07T01:09:26;1287.30;;;999.90;;
4132;SDS011;2080;51.038;7.008;2023-05-07T01:11:53;1285.43;;;999.90;;
4132;SDS011;2080;51.038;7.008;2023-05-07T01:14:23;1295.03;;;999.90;;
4132;SDS011;2080;51.038;7.008;2023-05-07T01:16:51;1144.80;;;999.90;;
4132;SDS011;2080;51.038;7.008;2023-05-07T01:19:18;1124.30;;;999.90;;
4132;SDS011;2080;51.038;7.008;2023-05-07T01:21:44;1328.10;;;999.90;;
4132;SDS011;2080;51.038;7.008;2023-05-07T01:24:16;1151.35;;;999.90;;
4132;SDS011;2080;51.038;7.008;2023-05-07T01:26:49;1322.60;;;999.90;;
4132;SDS011;2080;51.038;7.008;2023-05-07T01:29:19;1285.72;;;999.90;;
4132;SDS011;2080;51.038;7.008;2023-05-07T01:31:45;1281.43;;;999.90;;
4132;SDS011;2080;51.038;7.008;2023-05-07T01:34:12;1169.50;;;999.90;;
4132;SDS011;2080;51.038;7.008;2023-05-07T01:36:40;1112.63;;;999.90;;
4132;SDS011;2080;51.038;7.008;2023-05-07T01:39:10;1152.13;;;999.90;;
4132;SDS011;2080;51.038;7.008;2023-05-07T01:41:37;1236.27;;;999.90;;
4132;SDS011;2080;51.038;7.008;2023-05-07T01:44:02;1296.55;;;999.90;;
4132;SDS011;2080;51.038;7.008;2023-05-07T01:46:28;1392.88;;;999.90;;
4132;SDS011;2080;51.038;7.008;2023-05-07T01:48:56;1361.32;;;999.90;;
4132;SDS011;2080;51.038;7.008;2023-05-07T01:51:21;1274.57;;;999.90;;
4132;SDS011;2080;51.038;7.008;2023-05-07T01:53:50;1293.57;;;999.90;;
4132;SDS011;2080;51.038;7.008;2023-05-07T01:56:17;1262.50;;;999.90;;
4132;SDS011;2080;51.038;7.008;2023-05-07T01:58:44;1295.47;;;999.90;;
4132;SDS011;2080;51.038;7.008;2023-05-07T02:01:13;1233.60;;;999.90;;
4132;SDS011;2080;51.038;7.008;2023-05-07T02:03:41;1181.97;;;999.90;;
4132;SDS011;2080;51.038;7.008;2023-05-07T02:06:07;1215.55;;;999.90;;
4132;SDS011;2080;51.038;7.008;2023-05-07T02:08:32;1328.63;;;999.90;;
4132;SDS011;2080;51.038;7.008;2023-05-07T02:11:00;1276.88;;;999.90;;
4132;SDS011;2080;51.038;7.008;2023-05-07T02:13:30;1355.75;;;999.90;;
4132;SDS011;2080;51.038;7.008;2023-05-07T02:15:57;1317.90;;;999.90;;
4132;SDS011;2080;51.038;7.008;2023-05-07T02:18:25;1342.72;;;999.90;;
4132;SDS011;2080;51.038;7.008;2023-05-07T02:20:53;1306.03;;;999.90;;
4132;SDS011;2080;51.038;7.008;2023-05-07T02:23:18;1344.53;;;999.90;;
4132;SDS011;2080;51.038;7.008;2023-05-07T02:25:46;1324.07;;;999.90;;
4132;SDS011;2080;51.038;7.008;2023-05-07T02:28:11;1346.18;;;999.90;;
4132;SDS011;2080;51.038;7.008;2023-05-07T02:30:37;1368.97;;;999.90;;
4132;SDS011;2080;51.038;7.008;2023-05-07T02:33:03;1366.72;;;999.90;;
4132;SDS011;2080;51.038;7.008;2023-05-07T02:35:28;1318.60;;;999.90;;
4132;SDS011;2080;51.038;7.008;2023-05-07T02:37:58;1292.55;;;999.90;;
4132;SDS011;2080;51.038;7.008;2023-05-07T02:40:26;1337.90;;;999.90;;
4132;SDS011;2080;51.038;7.008;2023-05-07T02:42:51;1328.23;;;999.90;;
4132;SDS011;2080;51.038;7.008;2023-05-07T02:45:17;1454.03;;;999.90;;
4132;SDS011;2080;51.038;7.008;2023-05-07T02:47:42;1520.03;;;999.90;;
4132;SDS011;2080;51.038;7.008;2023-05-07T02:50:08;1582.17;;;999.90;;
4132;SDS011;2080;51.038;7.008;2023-05-07T02:52:33;1524.13;;;999.90;;
4132;SDS011;2080;51.038;7.008;2023-05-07T02:54:58;1529.57;;;999.90;;
4132;SDS011;2080;51.038;7.008;2023-05-07T02:57:24;1385.18;;;999.90;;
4132;SDS011;2080;51.038;7.008;2023-05-07T02:59:52;1355.50;;;999.90;;
4132;SDS011;2080;51.038;7.008;2023-05-07T03:02:17;1360.20;;;999.90;;
4132;SDS011;2080;51.038;7.008;2023-05-07T03:04:43;1476.30;;;999.90;;
4132;SDS011;2080;51.038;7.008;2023-05-07T03:07:11;1498.95;;;999.90;;
4132;SDS011;2080;51.038;7.008;2023-05-07T03:09:39;1455.28;;;999.90;;
4132;SDS011;2080;51.038;7.008;2023-05-07T03:12:04;1412.88;;;999.90;;
4132;SDS011;2080;51.038;7.008;2023-05-07T03:14:35;1418.55;;;999.90;;
4132;SDS011;2080;51.038;7.008;2023-05-07T03:17:01;1498.90;;;999.90;;
4132;SDS011;2080;51.038;7.008;2023-05-07T03:19:26;1425.50;;;999.90;;
4132;SDS011;2080;51.038;7.008;2023-05-07T03:21:51;1495.87;;;999.90;;
4132;SDS011;2080;51.038;7.008;2023-05-07T03:24:17;1518.40;;;999.90;;
4132;SDS011;2080;51.038;7.008;2023-05-07T03:26:42;1559.30;;;999.90;;
4132;SDS011;2080;51.038;7.008;2023-05-07T03:29:10;1574.28;;;999.90;;
4132;SDS011;2080;51.038;7.008;2023-05-07T03:31:37;1564.47;;;999.90;;
4132;SDS011;2080;51.038;7.008;2023-05-07T03:34:03;1499.00;;;999.90;;
4132;SDS011;2080;51.038;7.008;2023-05-07T03:36:29;1473.22;;;999.90;;
4132;SDS011;2080;51.038;7.008;2023-05-07T03:38:57;1680.65;;;999.90;;
4132;SDS011;2080;51.038;7.008;2023-05-07T03:41:23;1683.43;;;999.90;;
4132;SDS011;2080;51.038;7.008;2023-05-07T03:43:48;1614.10;;;999.90;;
4132;SDS011;2080;51.038;7.008;2023-05-07T03:46:20;1546.82;;;999.90;;
4132;SDS011;2080;51.038;7.008;2023-05-07T03:48:45;1336.55;;;999.90;;
4132;SDS011;2080;51.038;7.008;2023-05-07T03:51:10;1378.37;;;999.90;;
4132;SDS011;2080;51.038;7.008;2023-05-07T03:53:38;1367.72;;;999.90;;
4132;SDS011;2080;51.038;7.008;2023-05-07T03:56:03;1383.67;;;999.90;;
4132;SDS011;2080;51.038;7.008;2023-05-07T03:58:31;1482.95;;;999.90;;
4132;SDS011;2080;51.038;7.008;2023-05-07T04:00:59;1386.03;;;999.90;;
4132;SDS011;2080;51.038;7.008;2023-05-07T04:03:24;1371.68;;;999.90;;
4132;SDS011;2080;51.038;7.008;2023-05-07T04:05:51;1392.03;;;999.90;;
4132;SDS011;2080;51.038;7.008;2023-05-07T04:08:19;1400.53;;;999.90;;
4132;SDS011;2080;51.038;7.008;2023-05-07T04:10:47;1367.57;;;999.90;;
4132;SDS011;2080;51.038;7.008;2023-05-07T04:13:19;1382.70;;;999.90;;
4132;SDS011;2080;51.038;7.008;2023-05-07T04:15:44;1426.50;;;999.90;;
4132;SDS011;2080;51.038;7.008;2023-05-07T04:18:11;1507.65;;;999.90;;
4132;SDS011;2080;51.038;7.008;2023-05-07T04:20:36;1464.53;;;999.90;;
4132;SDS011;2080;51.038;7.008;2023-05-07T04:23:04;1418.32;;;999.90;;
4132;SDS011;2080;51.038;7.008;2023-05-07T04:25:32;1429.90;;;999.90;;
4132;SDS011;2080;51.038;7.008;2023-05-07T04:27:58;1372.45;;;999.90;;
4132;SDS011;2080;51.038;7.008;2023-05-07T04:30:25;1350.53;;;999.90;;
4132;SDS011;2080;51.038;7.008;2023-05-07T04:32:53;1314.18;;;999.90;;
4132;SDS011;2080;51.038;7.008;2023-05-07T04:35:19;1296.63;;;999.90;;
4132;SDS011;2080;51.038;7.008;2023-05-07T04:37:47;1304.78;;;999.90;;
4132;SDS011;2080;51.038;7.008;2023-05-07T04:40:12;1314.95;;;999.90;;
4132;SDS011;2080;51.038;7.008;2023-05-07T04:42:41;1178.85;;;999.90;;
4132;SDS011;2080;51.038;7.008;2023-05-07T04:45:06;1177.50;;;999.90;;
4132;SDS011;2080;51.038;7.008;2023-05-07T04:47:35;1145.90;;;999.90;;
4132;SDS011;2080;51.038;7.008;2023-05-07T04:50:03;1235.60;;;999.90;;
4132;SDS011;2080;51.038;7.008;2023-05-07T04:52:31;1235.47;;;999.90;;
4132;SDS011;2080;51.038;7.008;2023-05-07T04:57:26;1222.53;;;999.90;;
4132;SDS011;2080;51.038;7.008;2023-05-07T04:59:52;1098.18;;;999.90;;
4132;SDS011;2080;51.038;7.008;2023-05-07T05:02:20;1056.82;;;965.95;;
4132;SDS011;2080;51.038;7.008;2023-05-07T05:04:46;1049.40;;;958.83;;
4132;SDS011;2080;51.038;7.008;2023-05-07T05:07:11;1155.27;;;999.90;;
4132;SDS011;2080;51.038;7.008;2023-05-07T05:09:36;1227.90;;;999.90;;
4132;SDS011;2080;51.038;7.008;2023-05-07T05:12:04;1035.07;;;947.80;;
4132;SDS011;2080;51.038;7.008;2023-05-07T05:14:32;971.83;;;888.33;;
4132;SDS011;2080;51.038;7.008;2023-05-07T05:16:57;1015.63;;;928.20;;
4132;SDS011;2080;51.038;7.008;2023-05-07T05:19:25;1006.03;;;919.42;;
4132;SDS011;2080;51.038;7.008;2023-05-07T05:21:50;1081.57;;;987.97;;
4132;SDS011;2080;51.038;7.008;2023-05-07T05:24:16;1138.03;;;999.90;;
4132;SDS011;2080;51.038;7.008;2023-05-07T05:26:41;1070.40;;;972.23;;
4132;SDS011;2080;51.038;7.008;2023-05-07T05:29:06;1295.67;;;999.90;;
4132;SDS011;2080;51.038;7.008;2023-05-07T05:31:34;1327.13;;;999.90;;
4132;SDS011;2080;51.038;7.008;2023-05-07T05:34:04;1095.70;;;992.33;;
4132;SDS011;2080;51.038;7.008;2023-05-07T05:36:30;1422.83;;;999.90;;
4132;SDS011;2080;51.038;7.008;2023-05-07T05:38:57;1673.68;;;999.90;;
4132;SDS011;2080;51.038;7.008;2023-05-07T05:41:23;1560.13;;;999.90;;
4132;SDS011;2080;51.038;7.008;2023-05-07T05:43:48;1650.83;;;999.90;;
4132;SDS011;2080;51.038;7.008;2023-05-07T05:46:14;1443.47;;;999.90;;
4132;SDS011;2080;51.038;7.008;2023-05-07T05:48:39;1584.88;;;999.90;;
4132;SDS011;2080;51.038;7.008;2023-05-07T05:51:07;1527.22;;;999.90;;
4132;SDS011;2080;51.038;7.008;2023-05-07T05:53:35;1515.93;;;999.90;;
4132;SDS011;2080;51.038;7.008;2023-05-07T05:56:02;1489.63;;;999.90;;
4132;SDS011;2080;51.038;7.008;2023-05-07T05:58:31;1408.40;;;999.90;;
4132;SDS011;2080;51.038;7.008;2023-05-07T06:00:59;1559.32;;;999.90;;
4132;SDS011;2080;51.038;7.008;2023-05-07T06:03:24;1491.47;;;999.90;;
4132;SDS011;2080;51.038;7.008;2023-05-07T06:05:50;1506.68;;;999.90;;
4132;SDS011;2080;51.038;7.008;2023-05-07T06:08:18;1610.03;;;999.90;;
4132;SDS011;2080;51.038;7.008;2023-05-07T06:10:46;1375.30;;;999.90;;
4132;SDS011;2080;51.038;7.008;2023-05-07T06:13:12;758.37;;;687.70;;
4132;SDS011;2080;51.038;7.008;2023-05-07T06:15:37;1356.23;;;999.90;;
4132;SDS011;2080;51.038;7.008;2023-05-07T06:18:02;1446.03;;;999.90;;
4132;SDS011;2080;51.038;7.008;2023-05-07T06:20:28;1042.85;;;945.70;;
4132;SDS011;2080;51.038;7.008;2023-05-07T06:22:53;820.87;;;743.10;;
4132;SDS011;2080;51.038;7.008;2023-05-07T06:25:18;834.47;;;757.37;;
4132;SDS011;2080;51.038;7.008;2023-05-07T06:27:44;1086.97;;;984.07;;
4132;SDS011;2080;51.038;7.008;2023-05-07T06:30:09;1057.80;;;953.73;;
4132;SDS011;2080;51.038;7.008;2023-05-07T06:32:36;899.42;;;816.75;;
4132;SDS011;2080;51.038;7.008;2023-05-07T06:35:01;1121.18;;;999.90;;
4132;SDS011;2080;51.038;7.008;2023-05-07T06:37:27;1314.23;;;999.90;;
4132;SDS011;2080;51.038;7.008;2023-05-07T06:39:52;1024.40;;;924.10;;
4132;SDS011;2080;51.038;7.008;2023-05-07T06:42:17;1334.27;;;999.90;;
4132;SDS011;2080;51.038;7.008;2023-05-07T06:44:45;1372.32;;;999.90;;
4132;SDS011;2080;51.038;7.008;2023-05-07T06:47:10;1371.47;;;999.90;;
4132;SDS011;2080;51.038;7.008;2023-05-07T06:49:35;1346.30;;;999.90;;
4132;SDS011;2080;51.038;7.008;2023-05-07T06:52:06;1345.30;;;999.90;;
4132;SDS011;2080;51.038;7.008;2023-05-07T06:54:31;515.27;;;407.80;;
4132;SDS011;2080;51.038;7.008;2023-05-07T06:56:59;1243.80;;;999.90;;
4132;SDS011;2080;51.038;7.008;2023-05-07T06:59:24;716.25;;;645.08;;
4132;SDS011;2080;51.038;7.008;2023-05-07T07:01:50;632.95;;;571.47;;
4132;SDS011;2080;51.038;7.008;2023-05-07T07:04:15;564.13;;;505.25;;
4132;SDS011;2080;51.038;7.008;2023-05-07T07:06:40;704.22;;;638.38;;
4132;SDS011;2080;51.038;7.008;2023-05-07T07:09:08;683.92;;;618.17;;
4132;SDS011;2080;51.038;7.008;2023-05-07T07:11:36;762.40;;;692.53;;
4132;SDS011;2080;51.038;7.008;2023-05-07T07:14:01;926.77;;;833.80;;
4132;SDS011;2080;51.038;7.008;2023-05-07T07:16:26;630.13;;;566.10;;
4132;SDS011;2080;51.038;7.008;2023-05-07T07:18:54;848.93;;;774.40;;
4132;SDS011;2080;51.038;7.008;2023-05-07T07:21:20;618.50;;;555.83;;
4132;SDS011;2080;51.038;7.008;2023-05-07T07:23:45;777.03;;;706.67;;
4132;SDS011;2080;51.038;7.008;2023-05-07T07:26:15;341.13;;;115.10;;
4132;SDS011;2080;51.038;7.008;2023-05-07T07:28:43;508.85;;;435.48;;
4132;SDS011;2080;51.038;7.008;2023-05-07T07:31:12;432.63;;;323.30;;
4132;SDS011;2080;51.038;7.008;2023-05-07T07:33:37;427.98;;;268.75;;
4132;SDS011;2080;51.038;7.008;2023-05-07T07:36:03;415.93;;;280.27;;
4132;SDS011;2080;51.038;7.008;2023-05-07T07:38:30;352.98;;;137.98;;
4132;SDS011;2080;51.038;7.008;2023-05-07T07:41:01;322.27;;;80.97;;
4132;SDS011;2080;51.038;7.008;2023-05-07T07:43:28;305.05;;;55.28;;
4132;SDS011;2080;51.038;7.008;2023-05-07T07:45:56;406.17;;;257.90;;
4132;SDS011;2080;51.038;7.008;2023-05-07T07:48:24;327.33;;;85.20;;
4132;SDS011;2080;51.038;7.008;2023-05-07T07:50:49;331.53;;;89.63;;
4132;SDS011;2080;51.038;7.008;2023-05-07T07:53:16;314.80;;;62.28;;
4132;SDS011;2080;51.038;7.008;2023-05-07T07:55:41;355.30;;;140.83;;
4132;SDS011;2080;51.038;7.008;2023-05-07T07:58:11;348.73;;;117.65;;
4132;SDS011;2080;51.038;7.008;2023-05-07T08:00:37;326.00;;;86.03;;
4132;SDS011;2080;51.038;7.008;2023-05-07T08:03:04;336.20;;;94.57;;
4132;SDS011;2080;51.038;7.008;2023-05-07T08:05:34;329.75;;;74.50;;
4132;SDS011;2080;51.038;7.008;2023-05-07T08:08:04;362.55;;;156.50;;
4132;SDS011;2080;51.038;7.008;2023-05-07T08:10:33;342.90;;;90.93;;
4132;SDS011;2080;51.038;7.008;2023-05-07T08:12:59;335.30;;;96.85;;
4132;SDS011;2080;51.038;7.008;2023-05-07T08:15:28;427.60;;;282.33;;
4132;SDS011;2080;51.038;7.008;2023-05-07T08:17:54;378.77;;;167.73;;
4132;SDS011;2080;51.038;7.008;2023-05-07T08:20:21;382.77;;;191.80;;
4132;SDS011;2080;51.038;7.008;2023-05-07T08:22:53;346.03;;;115.40;;
4132;SDS011;2080;51.038;7.008;2023-05-07T08:25:18;337.58;;;97.85;;
4132;SDS011;2080;51.038;7.008;2023-05-07T08:27:44;387.80;;;190.27;;
4132;SDS011;2080;51.038;7.008;2023-05-07T08:30:12;400.63;;;231.93;;
4132;SDS011;2080;51.038;7.008;2023-05-07T08:32:40;375.40;;;167.48;;
4132;SDS011;2080;51.038;7.008;2023-05-07T08:35:06;443.47;;;321.67;;
4132;SDS011;2080;51.038;7.008;2023-05-07T08:37:31;372.93;;;146.03;;
4132;SDS011;2080;51.038;7.008;2023-05-07T08:39:57;399.27;;;229.27;;
4132;SDS011;2080;51.038;7.008;2023-05-07T08:42:23;393.17;;;211.20;;
4132;SDS011;2080;51.038;7.008;2023-05-07T08:44:50;439.85;;;322.65;;
4132;SDS011;2080;51.038;7.008;2023-05-07T08:47:18;447.25;;;340.38;;
4132;SDS011;2080;51.038;7.008;2023-05-07T08:49:46;416.85;;;268.17;;
4132;SDS011;2080;51.038;7.008;2023-05-07T08:52:12;440.57;;;322.47;;
4132;SDS011;2080;51.038;7.008;2023-05-07T08:54:38;532.90;;;477.37;;
4132;SDS011;2080;51.038;7.008;2023-05-07T08:57:08;398.58;;;231.55;;
4132;SDS011;2080;51.038;7.008;2023-05-07T08:59:33;499.83;;;445.53;;
4132;SDS011;2080;51.038;7.008;2023-05-07T09:01:59;556.87;;;498.13;;
4132;SDS011;2080;51.038;7.008;2023-05-07T09:04:24;463.60;;;376.87;;
4132;SDS011;2080;51.038;7.008;2023-05-07T09:06:50;423.20;;;279.63;;
4132;SDS011;2080;51.038;7.008;2023-05-07T09:09:16;422.10;;;271.20;;
4132;SDS011;2080;51.038;7.008;2023-05-07T09:11:43;406.83;;;228.27;;
4132;SDS011;2080;51.038;7.008;2023-05-07T09:14:09;448.20;;;339.55;;
4132;SDS011;2080;51.038;7.008;2023-05-07T09:16:37;490.47;;;435.33;;
4132;SDS011;2080;51.038;7.008;2023-05-07T09:19:02;461.90;;;366.38;;
4132;SDS011;2080;51.038;7.008;2023-05-07T09:21:32;429.77;;;292.30;;
4132;SDS011;2080;51.038;7.008;2023-05-07T09:23:57;443.40;;;331.33;;
4132;SDS011;2080;51.038;7.008;2023-05-07T09:26:25;474.03;;;397.20;;
4132;SDS011;2080;51.038;7.008;2023-05-07T09:28:53;402.30;;;206.80;;
4132;SDS011;2080;51.038;7.008;2023-05-07T09:31:18;487.73;;;426.05;;
4132;SDS011;2080;51.038;7.008;2023-05-07T09:33:43;418.35;;;273.48;;
4132;SDS011;2080;51.038;7.008;2023-05-07T09:36:09;496.33;;;434.02;;
4132;SDS011;2080;51.038;7.008;2023-05-07T09:38:37;589.92;;;529.53;;
4132;SDS011;2080;51.038;7.008;2023-05-07T09:43:36;419.80;;;287.00;;
4132;SDS011;2080;51.038;7.008;2023-05-07T09:46:12;447.83;;;341.88;;
4132;SDS011;2080;51.038;7.008;2023-05-07T09:48:39;384.45;;;177.68;;
4132;SDS011;2080;51.038;7.008;2023-05-07T09:51:11;572.65;;;513.28;;
4132;SDS011;2080;51.038;7.008;2023-05-07T09:53:55;457.00;;;342.83;;
4132;SDS011;2080;51.038;7.008;2023-05-07T09:56:22;476.95;;;412.42;;
4132;SDS011;2080;51.038;7.008;2023-05-07T09:58:50;407.25;;;251.05;;
4132;SDS011;2080;51.038;7.008;2023-05-07T10:01:21;335.23;;;89.27;;
4132;SDS011;2080;51.038;7.008;2023-05-07T10:03:47;354.38;;;111.40;;
4132;SDS011;2080;51.038;7.008;2023-05-07T10:06:17;351.08;;;112.28;;
4132;SDS011;2080;51.038;7.008;2023-05-07T10:08:45;455.30;;;347.37;;
4132;SDS011;2080;51.038;7.008;2023-05-07T10:11:18;352.08;;;113.95;;
4132;SDS011;2080;51.038;7.008;2023-05-07T10:13:44;399.87;;;231.93;;
4132;SDS011;2080;51.038;7.008;2023-05-07T10:16:13;395.25;;;217.23;;
4132;SDS011;2080;51.038;7.008;2023-05-07T10:18:42;896.05;;;816.35;;
4132;SDS011;2080;51.038;7.008;2023-05-07T10:21:14;397.67;;;218.30;;
4132;SDS011;2080;51.038;7.008;2023-05-07T10:23:47;487.98;;;391.95;;
4132;SDS011;2080;51.038;7.008;2023-05-07T10:26:14;382.10;;;203.52;;
4132;SDS011;2080;51.038;7.008;2023-05-07T10:28:43;372.75;;;160.07;;
4132;SDS011;2080;51.038;7.008;2023-05-07T10:31:17;982.83;;;892.15;;
4132;SDS011;2080;51.038;7.008;2023-05-07T10:33:55;614.58;;;546.70;;
4132;SDS011;2080;51.038;7.008;2023-05-07T10:36:22;1132.80;;;999.90;;
4132;SDS011;2080;51.038;7.008;2023-05-07T10:38:55;845.58;;;770.70;;
4132;SDS011;2080;51.038;7.008;2023-05-07T10:41:22;1093.45;;;994.05;;
4132;SDS011;2080;51.038;7.008;2023-05-07T10:43:48;1094.23;;;997.20;;
4132;SDS011;2080;51.038;7.008;2023-05-07T10:46:14;1148.87;;;999.90;;
4132;SDS011;2080;51.038;7.008;2023-05-07T10:51:29;1177.05;;;999.90;;
4132;SDS011;2080;51.038;7.008;2023-05-07T10:56:41;1205.03;;;999.90;;
4132;SDS011;2080;51.038;7.008;2023-05-07T11:01:49;1067.38;;;971.95;;
4132;SDS011;2080;51.038;7.008;2023-05-07T11:04:17;1065.53;;;970.73;;
4132;SDS011;2080;51.038;7.008;2023-05-07T11:12:17;1076.80;;;980.22;;
4132;SDS011;2080;51.038;7.008;2023-05-07T11:17:29;1048.57;;;954.08;;
4132;SDS011;2080;51.038;7.008;2023-05-07T11:19:59;1034.88;;;942.10;;
4132;SDS011;2080;51.038;7.008;2023-05-07T11:25:00;1065.38;;;969.70;;
4132;SDS011;2080;51.038;7.008;2023-05-07T11:27:32;1155.10;;;847.75;;
4132;SDS011;2080;51.038;7.008;2023-05-07T11:29:58;1051.18;;;958.08;;
4132;SDS011;2080;51.038;7.008;2023-05-07T11:32:31;1086.13;;;989.58;;
4132;SDS011;2080;51.038;7.008;2023-05-07T11:34:57;1078.15;;;983.72;;
4132;SDS011;2080;51.038;7.008;2023-05-07T11:37:27;1082.95;;;986.97;;
4132;SDS011;2080;51.038;7.008;2023-05-07T11:40:04;940.03;;;856.33;;
4132;SDS011;2080;51.038;7.008;2023-05-07T11:42:35;926.22;;;844.72;;
4132;SDS011;2080;51.038;7.008;2023-05-07T11:45:05;1009.33;;;916.17;;
4132;SDS011;2080;51.038;7.008;2023-05-07T11:47:32;1028.55;;;936.17;;
4132;SDS011;2080;51.038;7.008;2023-05-07T11:50:02;1251.53;;;999.90;;
4132;SDS011;2080;51.038;7.008;2023-05-07T11:52:30;1032.65;;;941.38;;
4132;SDS011;2080;51.038;7.008;2023-05-07T11:54:59;960.35;;;875.80;;
4132;SDS011;2080;51.038;7.008;2023-05-07T11:57:28;995.03;;;905.95;;
4132;SDS011;2080;51.038;7.008;2023-05-07T11:59:58;1135.80;;;830.28;;
4132;SDS011;2080;51.038;7.008;2023-05-07T12:02:24;1999.90;;;999.90;;
4132;SDS011;2080;51.038;7.008;2023-05-07T12:04:53;1999.90;;;999.90;;
4132;SDS011;2080;51.038;7.008;2023-05-07T12:07:19;1999.90;;;999.90;;
4132;SDS011;2080;51.038;7.008;2023-05-07T12:09:45;1999.90;;;999.90;;
4132;SDS011;2080;51.038;7.008;2023-05-07T12:12:11;1999.90;;;999.90;;
4132;SDS011;2080;51.038;7.008;2023-05-07T12:14:45;1999.90;;;999.90;;
4132;SDS011;2080;51.038;7.008;2023-05-07T12:17:12;1999.90;;;999.90;;
4132;SDS011;2080;51.038;7.008;2023-05-07T12:19:39;1999.90;;;999.90;;
4132;SDS011;2080;51.038;7.008;2023-05-07T12:22:09;1999.90;;;999.90;;
4132;SDS011;2080;51.038;7.008;2023-05-07T12:24:56;1999.90;;;999.90;;
4132;SDS011;2080;51.038;7.008;2023-05-07T12:27:25;1999.90;;;999.90;;
4132;SDS011;2080;51.038;7.008;2023-05-07T12:29:50;1999.90;;;999.90;;
4132;SDS011;2080;51.038;7.008;2023-05-07T12:32:16;1999.90;;;999.90;;
4132;SDS011;2080;51.038;7.008;2023-05-07T12:34:43;1999.90;;;999.90;;
4132;SDS011;2080;51.038;7.008;2023-05-07T12:37:09;1999.90;;;999.90;;
4132;SDS011;2080;51.038;7.008;2023-05-07T12:39:35;1999.90;;;999.90;;
4132;SDS011;2080;51.038;7.008;2023-05-07T12:42:01;1999.90;;;999.90;;
4132;SDS011;2080;51.038;7.008;2023-05-07T12:44:32;1999.90;;;999.90;;
4132;SDS011;2080;51.038;7.008;2023-05-07T12:47:02;1999.90;;;999.90;;
4132;SDS011;2080;51.038;7.008;2023-05-07T12:49:34;1015.35;;;926.08;;
4132;SDS011;2080;51.038;7.008;2023-05-07T12:52:02;1999.90;;;999.90;;
4132;SDS011;2080;51.038;7.008;2023-05-07T12:54:35;1116.53;;;811.58;;
4132;SDS011;2080;51.038;7.008;2023-05-07T12:57:03;729.22;;;660.78;;
4132;SDS011;2080;51.038;7.008;2023-05-07T12:59:31;970.20;;;882.60;;
4132;SDS011;2080;51.038;7.008;2023-05-07T13:02:00;917.22;;;835.92;;
4132;SDS011;2080;51.038;7.008;2023-05-07T13:04:27;951.70;;;868.22;;
4132;SDS011;2080;51.038;7.008;2023-05-07T13:06:53;1118.57;;;999.90;;
4132;SDS011;2080;51.038;7.008;2023-05-07T13:09:21;1244.90;;;861.37;;
4132;SDS011;2080;51.038;7.008;2023-05-07T13:11:46;956.10;;;873.07;;
4132;SDS011;2080;51.038;7.008;2023-05-07T13:14:14;991.95;;;905.10;;
4132;SDS011;2080;51.038;7.008;2023-05-07T13:16:40;911.38;;;830.78;;
4132;SDS011;2080;51.038;7.008;2023-05-07T13:19:05;1014.93;;;924.10;;
4132;SDS011;2080;51.038;7.008;2023-05-07T13:21:33;991.75;;;905.45;;
4132;SDS011;2080;51.038;7.008;2023-05-07T13:23:58;1132.53;;;999.90;;
4132;SDS011;2080;51.038;7.008;2023-05-07T13:26:26;914.55;;;834.95;;
4132;SDS011;2080;51.038;7.008;2023-05-07T13:28:52;1090.57;;;994.53;;
4132;SDS011;2080;51.038;7.008;2023-05-07T13:31:20;1121.88;;;999.90;;
4132;SDS011;2080;51.038;7.008;2023-05-07T13:33:48;1126.85;;;999.90;;
4132;SDS011;2080;51.038;7.008;2023-05-07T13:36:14;1081.05;;;984.97;;
4132;SDS011;2080;51.038;7.008;2023-05-07T13:38:42;1125.73;;;999.90;;
4132;SDS011;2080;51.038;7.008;2023-05-07T13:41:07;468.73;;;377.60;;
4132;SDS011;2080;51.038;7.008;2023-05-07T13:43:33;462.63;;;335.10;;
4132;SDS011;2080;51.038;7.008;2023-05-07T13:45:58;851.30;;;776.50;;
4132;SDS011;2080;51.038;7.008;2023-05-07T13:48:27;546.50;;;484.38;;
4132;SDS011;2080;51.038;7.008;2023-05-07T13:50:53;811.30;;;738.28;;
4132;SDS011;2080;51.038;7.008;2023-05-07T13:53:19;417.07;;;271.93;;
4132;SDS011;2080;51.038;7.008;2023-05-07T13:55:44;461.97;;;374.03;;
4132;SDS011;2080;51.038;7.008;2023-05-07T13:58:12;454.63;;;356.17;;
4132;SDS011;2080;51.038;7.008;2023-05-07T14:00:39;1133.45;;;999.90;;
4132;SDS011;2080;51.038;7.008;2023-05-07T14:03:05;579.53;;;507.90;;
4132;SDS011;2080;51.038;7.008;2023-05-07T14:05:32;739.67;;;666.10;;
4132;SDS011;2080;51.038;7.008;2023-05-07T14:08:03;1089.50;;;965.25;;
4132;SDS011;2080;51.038;7.008;2023-05-07T14:10:32;695.28;;;627.42;;
4132;SDS011;2080;51.038;7.008;2023-05-07T14:12:59;760.78;;;691.95;;
4132;SDS011;2080;51.038;7.008;2023-05-07T14:15:25;396.13;;;212.00;;
4132;SDS011;2080;51.038;7.008;2023-05-07T14:17:52;753.95;;;685.17;;
4132;SDS011;2080;51.038;7.008;2023-05-07T14:20:20;479.63;;;384.13;;
4132;SDS011;2080;51.038;7.008;2023-05-07T14:22:50;422.92;;;269.98;;
4132;SDS011;2080;51.038;7.008;2023-05-07T14:25:18;651.65;;;589.80;;
4132;SDS011;2080;51.038;7.008;2023-05-07T14:27:43;436.23;;;288.27;;
4132;SDS011;2080;51.038;7.008;2023-05-07T14:30:12;377.70;;;173.77;;
4132;SDS011;2080;51.038;7.008;2023-05-07T14:32:37;596.73;;;536.70;;
4132;SDS011;2080;51.038;7.008;2023-05-07T14:35:03;653.13;;;591.93;;
4132;SDS011;2080;51.038;7.008;2023-05-07T14:37:29;453.63;;;337.55;;